Time;durP1;ratioP1;P1;durP2;ratioP2;P2;SDS_P1;SDS_P2;PMS_P1;PMS_P2;Temp;Humidity;BMP_temperature;BMP_pressure;BME280_temperature;BME280_humidity;BME280_pressure;Samples;Min_cycle;Max_cycle;Signal;HPM_P1;HPM_P2
2022/03/29 00:01:14;;;;;;;;;;;;;;;18.51;43.56;101739.44;5110308;28;19912;-57
2022/03/29 00:03:40;;;;;;;;;;;;;;;18.51;43.64;101734.03;5103329;28;19908;-57
2022/03/29 00:06:05;;;;;;;;;;;;;;;18.49;43.67;101731.50;5103884;28;19934;-57
2022/03/29 00:08:30;;;;;;;;;;;;;;;18.49;43.43;101735.03;5104086;28;19908;-57
2022/03/29 00:10:55;;;;;;;;;;;;;;;18.49;43.70;101734.19;5105709;28;19911;-56
2022/03/29 00:13:20;;;;;;;;;;;;;;;18.48;43.47;101721.75;5124514;28;19930;-57
2022/03/29 00:15:46;;;;;;;;;;;;;;;18.47;43.40;101723.56;5124202;28;19907;-57
2022/03/29 00:18:11;;;;;;;;;;;;;;;18.48;43.48;101729.81;5124417;28;20380;-57
2022/03/29 00:20:36;;;;;;;;;;;;;;;18.46;43.64;101721.88;5124383;28;19994;-55
2022/03/29 00:23:01;;;;;;;;;;;;;;;18.45;43.55;101720.19;5124044;28;19922;-57
2022/03/29 00:25:26;;;;;;;;;;;;;;;18.45;43.60;101717.47;5122821;28;19915;-57
2022/03/29 00:27:51;;;;;;;;;;;;;;;18.46;43.49;101718.31;5123792;28;19956;-57
2022/03/29 00:30:17;;;;;;;;;;;;;;;18.43;43.49;101708.69;5124197;28;19915;-58
2022/03/29 00:32:43;;;;;;;;;;;;;;;18.44;43.48;101714.94;5123820;28;19908;-57
2022/03/29 00:35:11;;;;;;;;;;;;;;;18.42;43.41;101712.38;5123080;28;19914;-57
2022/03/29 00:37:36;;;;;;;;;;;;;;;18.42;43.64;101709.69;5124188;28;19908;-57
2022/03/29 00:40:02;;;;;;;;;;;;;;;18.41;43.55;101710.69;5124082;28;19933;-58
2022/03/29 00:42:27;;;;;;;;;;;;;;;18.42;43.53;101711.53;5123496;28;20384;-57
2022/03/29 00:44:55;;;;;;;;;;;;;;;18.41;43.30;101712.53;5122993;28;19908;-57
2022/03/29 00:47:20;;;;;;;;;;;;;;;18.40;43.25;101706.31;5101960;28;19907;-58
2022/03/29 00:49:45;;;;;;;;;;;;;;;18.40;43.42;101702.78;5103862;28;19966;-57
2022/03/29 00:52:11;;;;;;;;;;;;;;;18.39;43.19;101707.31;5121773;28;19934;-57
2022/03/29 00:54:38;;;;;;;;;;;;;;;18.38;43.38;101699.34;5122878;28;19923;-55
2022/03/29 00:57:03;;;;;;;;;;;;;;;18.37;43.32;101695.81;5123603;28;19918;-57
2022/03/29 00:59:29;;;;;;;;;;;;;;;18.38;43.33;101693.97;5122684;28;19907;-57
2022/03/29 01:01:56;;;;;;;;;;;;;;;18.37;43.11;101689.59;5123397;28;19907;-57
2022/03/29 01:04:21;;;;;;;;;;;;;;;18.36;43.21;101688.75;5124402;28;19908;-57
2022/03/29 01:06:46;;;;;;;;;;;;;;;18.35;43.27;101684.38;5123754;28;20538;-57
2022/03/29 01:09:11;;;;;;;;;;;;;;;18.35;43.33;101683.47;5123234;28;19964;-58
2022/03/29 01:11:37;;;;;;;;;;;;;;;18.35;43.16;101672.72;5123554;28;19947;-57
2022/03/29 01:14:03;;;;;;;;;;;;;;;18.34;43.33;101682.63;5124025;28;19961;-57
2022/03/29 01:19:12;;;;;;;;;;;;;;;18.32;43.28;101676.56;5127563;28;20024;-57
2022/03/29 01:21:38;;;;;;;;;;;;;;;18.32;43.24;101673.88;5126230;28;19927;-56
2022/03/29 01:24:03;;;;;;;;;;;;;;;18.32;43.39;101673.03;5127231;28;19915;-57
2022/03/29 01:26:28;;;;;;;;;;;;;;;18.31;43.37;101669.50;5125658;28;19938;-57
2022/03/29 01:28:53;;;;;;;;;;;;;;;18.31;43.37;101671.31;5126105;28;19908;-56
2022/03/29 01:31:19;;;;;;;;;;;;;;;18.30;43.40;101667.78;5126975;28;19914;-57
2022/03/29 01:33:44;;;;;;;;;;;;;;;18.30;43.21;101669.63;5127150;28;19911;-56
2022/03/29 01:36:09;;;;;;;;;;;;;;;18.29;43.18;101667.94;5125860;28;19912;-57
2022/03/29 01:38:34;;;;;;;;;;;;;;;18.28;43.39;101660.84;5125453;28;19919;-57
2022/03/29 01:41:05;;;;;;;;;;;;;;;18.27;43.43;101665.41;5126260;28;20283;-57
2022/03/29 01:43:31;;;;;;;;;;;;;;;18.28;43.30;101668.94;5125771;28;19921;-57
2022/03/29 01:45:56;;;;;;;;;;;;;;;18.26;43.32;101658.28;5119645;28;19947;-57
2022/03/29 01:48:21;;;;;;;;;;;;;;;18.27;43.09;101660.00;5126736;28;19912;-57
2022/03/29 01:50:48;;;;;;;;;;;;;;;18.27;43.17;101656.47;5125525;28;19961;-57
2022/03/29 01:53:26;;;;;;;;;;;;;;;18.25;43.36;101659.28;5126491;28;19915;-56
2022/03/29 01:55:58;;;;;;;;;;;;;;;18.24;43.26;101657.59;5126575;28;19914;-55
2022/03/29 01:58:24;;;;;;;;;;;;;;;18.23;43.24;101654.06;5126619;28;19915;-57
2022/03/29 02:00:49;;;;;;;;;;;;;;;18.22;43.05;101641.63;5126363;28;19983;-56
2022/03/29 02:03:14;;;;;;;;;;;;;;;18.22;43.16;101632.66;5126460;28;19907;-56
2022/03/29 02:05:39;;;;;;;;;;;;;;;18.21;42.97;101630.97;5126528;28;19914;-57
2022/03/29 02:08:05;;;;;;;;;;;;;;;18.22;43.31;101630.84;5124786;28;19943;-57
2022/03/29 02:10:30;;;;;;;;;;;;;;;18.20;43.22;101624.75;5125131;28;19908;-57
2022/03/29 02:12:55;;;;;;;;;;;;;;;18.20;43.19;101627.44;5125706;28;19911;-54
2022/03/29 02:15:20;;;;;;;;;;;;;;;18.20;43.28;101622.06;5126589;28;19991;-56
2022/03/29 02:17:46;;;;;;;;;;;;;;;18.19;43.34;101614.97;5125417;28;19950;-56
2022/03/29 02:20:13;;;;;;;;;;;;;;;18.18;43.27;101609.72;5126554;28;19998;-57
2022/03/29 02:22:39;;;;;;;;;;;;;;;18.18;43.40;101607.91;5126317;28;19973;-55
2022/03/29 02:25:04;;;;;;;;;;;;;;;18.18;43.16;101604.34;5124838;28;20389;-54
2022/03/29 02:27:29;;;;;;;;;;;;;;;18.17;43.30;101599.97;5124399;28;19914;-56
2022/03/29 02:29:54;;;;;;;;;;;;;;;18.16;43.33;101604.50;5126073;28;20379;-54
2022/03/29 02:32:20;;;;;;;;;;;;;;;18.17;43.28;101599.97;5125408;28;19939;-55
2022/03/29 02:34:45;;;;;;;;;;;;;;;18.16;43.39;101600.97;5125539;28;19923;-57
2022/03/29 02:37:11;;;;;;;;;;;;;;;18.14;43.17;101595.75;5124650;28;19915;-56
2022/03/29 02:39:37;;;;;;;;;;;;;;;18.15;43.10;101591.19;5125974;27;19908;-57
2022/03/29 02:42:02;;;;;;;;;;;;;;;18.14;43.16;101586.81;5125202;28;19911;-56
2022/03/29 02:44:27;;;;;;;;;;;;;;;18.13;43.06;101577.88;5125703;28;19998;-54
2022/03/29 02:46:52;;;;;;;;;;;;;;;18.13;43.18;101577.88;5125050;28;19915;-56
2022/03/29 02:49:17;;;;;;;;;;;;;;;18.13;43.17;101571.63;5125900;28;20552;-55
2022/03/29 02:51:42;;;;;;;;;;;;;;;18.12;43.15;101572.66;5125471;28;19912;-57
2022/03/29 02:54:08;;;;;;;;;;;;;;;18.10;43.13;101567.41;5125685;28;19912;-56
2022/03/29 02:56:34;;;;;;;;;;;;;;;18.11;43.31;101568.28;5125295;28;19908;-58
2022/03/29 02:58:59;;;;;;;;;;;;;;;18.10;43.41;101567.41;5125578;28;19908;-57
2022/03/29 03:01:28;;;;;;;;;;;;;;;18.10;43.16;101566.56;5114875;28;19908;-57
2022/03/29 03:03:53;;;;;;;;;;;;;;;18.09;43.16;101564.84;5105412;28;19999;-56
2022/03/29 03:06:19;;;;;;;;;;;;;;;18.08;43.14;101555.09;5105148;28;19908;-57
2022/03/29 03:08:44;;;;;;;;;;;;;;;18.08;43.38;101553.25;5105008;28;20376;-56
2022/03/29 03:11:09;;;;;;;;;;;;;;;18.07;43.18;101559.63;5104260;28;19912;-57
2022/03/29 03:13:35;;;;;;;;;;;;;;;18.06;43.34;101557.94;5105046;28;19911;-54
2022/03/29 03:16:00;;;;;;;;;;;;;;;18.06;43.31;101565.19;5105002;28;19924;-56
2022/03/29 03:18:25;;;;;;;;;;;;;;;18.05;43.30;101555.38;5117126;28;19912;-56
2022/03/29 03:20:50;;;;;;;;;;;;;;;18.04;43.32;101554.53;5125157;28;19908;-57
2022/03/29 03:23:15;;;;;;;;;;;;;;;18.04;43.02;101553.69;5125383;28;20508;-54
2022/03/29 03:25:41;;;;;;;;;;;;;;;18.03;43.07;101543.94;5123736;28;19915;-54
2022/03/29 03:28:06;;;;;;;;;;;;;;;18.02;43.19;101537.72;5124568;28;19933;-55
2022/03/29 03:30:31;;;;;;;;;;;;;;;18.02;43.29;101531.47;5125056;28;19908;-53
2022/03/29 03:32:56;;;;;;;;;;;;;;;18.01;43.25;101529.75;5124314;28;19916;-55
2022/03/29 03:35:21;;;;;;;;;;;;;;;18.01;43.32;101527.94;5125289;28;19918;-57
2022/03/29 03:37:47;;;;;;;;;;;;;;;17.99;43.08;101520.00;5124845;28;19919;-55
2022/03/29 03:40:12;;;;;;;;;;;;;;;17.99;43.32;101513.78;5124730;28;19939;-54
2022/03/29 03:42:38;;;;;;;;;;;;;;;18.00;43.31;101520.84;5124343;28;19908;-56
2022/03/29 03:45:04;;;;;;;;;;;;;;;17.98;43.14;101529.06;5124935;28;19994;-56
2022/03/29 03:47:29;;;;;;;;;;;;;;;17.97;43.39;101516.63;5124326;28;19922;-56
2022/03/29 03:49:55;;;;;;;;;;;;;;;17.98;43.29;101514.78;5124688;28;19908;-55
2022/03/29 03:52:20;;;;;;;;;;;;;;;17.97;43.29;101510.41;5123405;28;19914;-53
2022/03/29 03:54:46;;;;;;;;;;;;;;;17.97;43.07;101515.78;5124168;28;20276;-55
2022/03/29 03:57:11;;;;;;;;;;;;;;;17.96;43.12;101512.22;5124032;28;19919;-54
2022/03/29 03:59:36;;;;;;;;;;;;;;;17.96;43.29;101506.00;5124474;28;19965;-54
2022/03/29 04:02:02;;;;;;;;;;;;;;;17.96;43.14;101503.31;5123844;28;19912;-54
2022/03/29 04:04:27;;;;;;;;;;;;;;;17.95;43.17;101504.31;5124629;28;19912;-54
2022/03/29 04:06:53;;;;;;;;;;;;;;;17.95;43.01;101509.69;5124366;28;19912;-55
2022/03/29 04:09:18;;;;;;;;;;;;;;;17.94;43.28;101505.31;5124340;28;19930;-52
2022/03/29 04:11:43;;;;;;;;;;;;;;;17.93;43.03;101498.25;5123874;28;19911;-55
2022/03/29 04:14:09;;;;;;;;;;;;;;;17.93;43.07;101500.94;5123156;28;19916;-54
2022/03/29 04:16:34;;;;;;;;;;;;;;;17.92;43.11;101500.06;5124232;28;19907;-55
2022/03/29 04:18:59;;;;;;;;;;;;;;;17.91;43.20;101498.38;5124271;28;19908;-55
2022/03/29 04:21:24;;;;;;;;;;;;;;;17.91;43.07;101501.06;5122631;28;19908;-54
2022/03/29 04:23:49;;;;;;;;;;;;;;;17.90;43.04;101503.91;5124307;28;20392;-55
2022/03/29 04:26:14;;;;;;;;;;;;;;;17.90;43.18;101510.13;5123917;28;19911;-56
2022/03/29 04:28:40;;;;;;;;;;;;;;;17.89;43.11;101503.06;5124257;28;19922;-57
2022/03/29 04:31:05;;;;;;;;;;;;;;;17.89;43.27;101502.22;5123808;28;19908;-56
2022/03/29 04:33:30;;;;;;;;;;;;;;;17.88;43.20;101500.50;5105743;28;19967;-55
2022/03/29 04:35:55;;;;;;;;;;;;;;;17.87;43.05;101494.28;5124044;28;19919;-55
2022/03/29 04:38:21;;;;;;;;;;;;;;;17.86;43.20;101489.91;5124299;28;19918;-57
2022/03/29 04:40:46;;;;;;;;;;;;;;;17.86;43.00;101489.91;5123872;28;19915;-56
2022/03/29 04:43:11;;;;;;;;;;;;;;;17.85;43.25;101493.59;5123456;28;19915;-55
2022/03/29 04:45:36;;;;;;;;;;;;;;;17.86;43.00;101489.91;5118237;28;19957;-53
2022/03/29 04:48:01;;;;;;;;;;;;;;;17.85;43.02;101490.91;5103187;28;19912;-55
2022/03/29 04:50:27;;;;;;;;;;;;;;;17.84;43.13;101494.59;5107509;28;19916;-54
2022/03/29 04:52:52;;;;;;;;;;;;;;;17.83;43.28;101492.88;5107306;28;20292;-56
2022/03/29 04:55:18;;;;;;;;;;;;;;;17.83;43.22;101492.03;5111719;28;19912;-56
2022/03/29 04:57:44;;;;;;;;;;;;;;;17.82;43.25;101488.50;5126685;28;19914;-55
2022/03/29 05:00:10;;;;;;;;;;;;;;;17.82;43.18;101495.72;5127091;28;20011;-56
2022/03/29 05:02:36;;;;;;;;;;;;;;;17.82;43.17;101499.25;5126715;28;19929;-56
2022/03/29 05:05:01;;;;;;;;;;;;;;;17.82;43.31;101490.34;5126584;28;19943;-56
2022/03/29 05:07:28;;;;;;;;;;;;;;;17.82;43.16;101482.28;5106965;28;19912;-57
2022/03/29 05:09:53;;;;;;;;;;;;;;;17.81;43.29;101478.75;5106880;28;20443;-55
2022/03/29 05:12:19;;;;;;;;;;;;;;;17.80;43.38;101482.44;5110647;28;19912;-55
2022/03/29 05:14:44;;;;;;;;;;;;;;;17.80;43.46;101485.13;5126910;28;19912;-55
2022/03/29 05:17:09;;;;;;;;;;;;;;;17.81;43.23;101484.13;5106729;28;19912;-56
2022/03/29 05:19:34;;;;;;;;;;;;;;;17.81;43.31;101483.28;5127023;28;19914;-57
2022/03/29 05:21:59;;;;;;;;;;;;;;;17.80;43.58;101489.63;5126652;28;19908;-57
2022/03/29 05:24:24;;;;;;;;;;;;;;;17.80;43.62;101486.94;5126745;28;19937;-56
2022/03/29 05:26:50;;;;;;;;;;;;;;;17.79;43.72;101486.09;5125701;28;20321;-56
2022/03/29 05:29:17;;;;;;;;;;;;;;;17.79;43.72;101490.63;5126503;28;19919;-56
2022/03/29 05:31:43;;;;;;;;;;;;;;;17.77;43.62;101493.47;5125806;28;19918;-57
2022/03/29 05:34:08;;;;;;;;;;;;;;;17.77;43.79;101489.94;5126447;28;19912;-57
2022/03/29 05:36:33;;;;;;;;;;;;;;;17.78;43.80;101497.00;5126275;28;19908;-55
2022/03/29 05:38:59;;;;;;;;;;;;;;;17.77;43.65;101488.09;5126385;28;19980;-56
2022/03/29 05:41:24;;;;;;;;;;;;;;;17.77;43.84;101481.88;5125550;27;19918;-55
2022/03/29 05:43:49;;;;;;;;;;;;;;;17.76;44.04;101482.88;5126227;28;19908;-56
2022/03/29 05:48:59;;;;;;;;;;;;;;;17.74;44.19;101489.22;5115555;28;19933;-58
2022/03/29 05:51:25;;;;;;;;;;;;;;;17.74;44.25;101491.06;5111335;28;19908;-58
2022/03/29 05:53:53;;;;;;;;;;;;;;;17.72;44.27;101485.81;5121075;28;19912;-58
2022/03/29 05:56:19;;;;;;;;;;;;;;;17.71;44.13;101483.25;5116769;28;19957;-58
2022/03/29 05:58:44;;;;;;;;;;;;;;;17.71;44.29;101492.19;5120174;28;19958;-53
2022/03/29 06:01:09;;;;;;;;;;;;;;;17.70;44.13;101493.16;5114898;28;19911;-58
2022/03/29 06:03:34;;;;;;;;;;;;;;;17.70;44.47;101489.63;5123243;28;19912;-59
2022/03/29 06:06:00;;;;;;;;;;;;;;;17.70;44.42;101495.00;5123861;28;19918;-58
2022/03/29 06:08:25;;;;;;;;;;;;;;;17.70;44.40;101495.84;5115234;28;19920;-57
2022/03/29 06:10:50;;;;;;;;;;;;;;;17.70;44.47;101493.16;5115760;28;19960;-59
2022/03/29 06:13:15;;;;;;;;;;;;;;;17.70;44.50;101492.31;5112751;28;19916;-57
2022/03/29 06:15:40;;;;;;;;;;;;;;;17.70;44.54;101495.84;5105944;28;20196;-57
2022/03/29 06:18:06;;;;;;;;;;;;;;;17.71;44.62;101499.41;5119882;28;20295;-57
2022/03/29 06:20:31;;;;;;;;;;;;;;;17.70;44.53;101497.69;5122912;28;19912;-55
2022/03/29 06:22:56;;;;;;;;;;;;;;;17.70;44.35;101506.63;5122810;28;19923;-59
2022/03/29 06:25:22;;;;;;;;;;;;;;;17.71;44.48;101496.69;5113322;27;19920;-56
2022/03/29 06:27:47;;;;;;;;;;;;;;;17.71;44.48;101499.41;5105124;28;19912;-57
2022/03/29 06:30:12;;;;;;;;;;;;;;;17.70;44.32;101497.69;5113847;28;19975;-57
2022/03/29 06:32:45;;;;;;;;;;;;;;;17.69;44.60;101496.88;5116012;28;19918;-57
2022/03/29 06:35:10;;;;;;;;;;;;;;;17.70;44.41;101497.69;5105902;28;19912;-57
2022/03/29 06:37:35;;;;;;;;;;;;;;;17.69;44.39;101494.16;5105312;28;19914;-56
2022/03/29 06:40:00;;;;;;;;;;;;;;;17.69;44.53;101493.34;5112974;28;19919;-57
2022/03/29 06:42:26;;;;;;;;;;;;;;;17.69;44.35;101496.03;5124529;28;19915;-57
2022/03/29 06:44:51;;;;;;;;;;;;;;;17.68;44.50;101487.09;5125224;28;19990;-58
2022/03/29 06:47:16;;;;;;;;;;;;;;;17.67;44.50;101487.22;5121698;28;20006;-56
2022/03/29 06:49:41;;;;;;;;;;;;;;;17.67;44.30;101484.53;5122469;28;19908;-55
2022/03/29 06:52:07;;;;;;;;;;;;;;;17.67;44.42;101488.09;5113746;28;19915;-57
2022/03/29 06:54:32;;;;;;;;;;;;;;;17.67;44.28;101493.50;5121333;28;19911;-56
2022/03/29 06:56:57;;;;;;;;;;;;;;;17.67;44.50;101484.53;5118998;28;19912;-54
2022/03/29 06:59:22;;;;;;;;;;;;;;;17.66;44.45;101494.47;5124842;28;19997;-57
2022/03/29 07:01:48;;;;;;;;;;;;;;;17.66;44.52;101489.06;5117339;28;19907;-58
2022/03/29 07:04:13;;;;;;;;;;;;;;;17.66;44.51;101499.00;5124918;28;19908;-58
2022/03/29 07:06:39;;;;;;;;;;;;;;;17.64;44.29;101492.94;5122319;28;19907;-58
2022/03/29 07:11:48;;;;;;;;;;;;;;;17.64;44.58;101498.31;5122756;28;19918;-58
2022/03/29 07:14:13;;;;;;;;;;;;;;;17.63;44.23;101491.25;5124728;28;19912;-58
2022/03/29 07:16:39;;;;;;;;;;;;;;;17.62;44.36;101487.69;5124179;28;19907;-58
2022/03/29 07:19:04;;;;;;;;;;;;;;;17.62;44.37;101490.38;5124631;28;19908;-58
2022/03/29 07:21:30;;;;;;;;;;;;;;;17.61;44.22;101491.38;5121585;28;19907;-58
2022/03/29 07:23:55;;;;;;;;;;;;;;;17.61;44.52;101479.75;5121712;28;19923;-58
2022/03/29 07:26:20;;;;;;;;;;;;;;;17.61;44.44;101485.13;5124013;28;19972;-58
2022/03/29 07:28:46;;;;;;;;;;;;;;;17.59;44.33;101477.22;5124627;28;20594;-58
2022/03/29 07:31:11;;;;;;;;;;;;;;;17.59;44.45;101484.47;5124511;28;19929;-58
2022/03/29 07:33:36;;;;;;;;;;;;;;;17.59;44.20;101476.38;5120792;28;19923;-58
2022/03/29 07:36:03;;;;;;;;;;;;;;;17.59;44.25;101477.22;5123403;28;19916;-59
2022/03/29 07:38:28;;;;;;;;;;;;;;;17.59;44.48;101479.06;5116505;28;19926;-56
2022/03/29 07:40:53;;;;;;;;;;;;;;;17.59;44.35;101476.38;5120068;28;19908;-56
2022/03/29 07:43:19;;;;;;;;;;;;;;;17.58;44.36;101474.66;5124143;28;19915;-58
2022/03/29 07:45:44;;;;;;;;;;;;;;;17.58;44.53;101480.88;5120345;28;19915;-58
2022/03/29 07:48:10;;;;;;;;;;;;;;;17.57;44.22;101470.28;5117973;28;19915;-58
2022/03/29 07:50:35;;;;;;;;;;;;;;;17.57;44.40;101468.44;5121238;28;19907;-58
2022/03/29 07:53:00;;;;;;;;;;;;;;;17.57;44.48;101471.13;5118255;28;19928;-58
2022/03/29 07:55:26;;;;;;;;;;;;;;;17.56;44.53;101473.97;5117481;28;19915;-58
2022/03/29 07:57:51;;;;;;;;;;;;;;;17.57;44.56;101470.28;5110734;28;19957;-58
2022/03/29 08:00:31;;;;;;;;;;;;;;;17.56;44.41;101469.44;5103999;28;19969;-59
2022/03/29 08:02:58;;;;;;;;;;;;;;;17.57;44.37;101478.34;5103701;28;19908;-59
2022/03/29 08:05:24;;;;;;;;;;;;;;;17.56;44.41;101485.59;5111938;28;19911;-59
2022/03/29 08:07:49;;;;;;;;;;;;;;;17.56;44.60;101482.91;5124615;28;19934;-59
2022/03/29 08:10:14;;;;;;;;;;;;;;;17.57;44.50;101478.34;5123826;28;19990;-58
2022/03/29 08:12:40;;;;;;;;;;;;;;;17.56;44.61;101479.34;5116737;28;19934;-58
2022/03/29 08:15:06;;;;;;;;;;;;;;;17.56;44.57;101477.50;5110897;28;19955;-58
2022/03/29 08:17:31;;;;;;;;;;;;;;;17.57;44.49;101481.03;5116604;28;19908;-58
2022/03/29 08:19:56;;;;;;;;;;;;;;;17.57;44.73;101481.03;5114517;28;19911;-58
2022/03/29 08:22:21;;;;;;;;;;;;;;;17.57;44.63;101484.59;5118544;28;19912;-56
2022/03/29 08:24:47;;;;;;;;;;;;;;;17.58;44.76;101480.88;5116757;28;19967;-57
2022/03/29 08:27:14;;;;;;;;;;;;;;;17.58;44.63;101477.34;5120355;28;19908;-59
2022/03/29 08:29:39;;;;;;;;;;;;;;;17.57;44.62;101472.97;5113531;28;20365;-59
2022/03/29 08:32:04;;;;;;;;;;;;;;;17.57;44.77;101475.66;5118948;28;19959;-58
2022/03/29 08:34:30;;;;;;;;;;;;;;;17.57;44.76;101472.97;5121330;28;20415;-58
2022/03/29 08:36:56;;;;;;;;;;;;;;;17.57;44.89;101472.97;5118126;28;20280;-58
2022/03/29 08:39:21;;;;;;;;;;;;;;;17.57;44.60;101470.28;5113339;28;19967;-58
2022/03/29 08:41:49;;;;;;;;;;;;;;;17.56;44.75;101477.50;5118845;28;19916;-57
2022/03/29 08:44:14;;;;;;;;;;;;;;;17.56;44.68;101476.66;5119434;28;19961;-57
2022/03/29 08:46:41;;;;;;;;;;;;;;;17.56;44.94;101469.44;5115522;28;19916;-57
2022/03/29 08:49:07;;;;;;;;;;;;;;;17.57;44.88;101470.28;5120513;28;19915;-58
2022/03/29 08:51:32;;;;;;;;;;;;;;;17.56;44.84;101472.13;5118693;28;19911;-58
2022/03/29 08:53:58;;;;;;;;;;;;;;;17.56;44.87;101466.75;5113558;28;19920;-56
2022/03/29 08:56:23;;;;;;;;;;;;;;;17.57;44.83;101470.28;5124030;28;19929;-55
2022/03/29 08:58:48;;;;;;;;;;;;;;;17.56;44.63;101468.59;5121348;27;20032;-58
2022/03/29 09:01:14;;;;;;;;;;;;;;;17.57;44.86;101472.97;5118869;28;19956;-58
2022/03/29 09:03:39;;;;;;;;;;;;;;;17.58;44.67;101471.97;5114894;28;20041;-58
2022/03/29 09:06:08;;;;;;;;;;;;;;;17.58;44.61;101466.59;5120059;28;19912;-59
2022/03/29 09:08:43;;;;;;;;;;;;;;;17.58;44.72;101469.28;5114008;28;20300;-58
2022/03/29 09:11:08;;;;;;;;;;;;;;;17.58;44.63;101466.59;5119918;28;19943;-58
2022/03/29 09:13:34;;;;;;;;;;;;;;;17.58;44.82;101463.91;5115720;28;19923;-58
2022/03/29 09:16:00;;;;;;;;;;;;;;;17.58;44.73;101471.97;5124039;28;19907;-58
2022/03/29 09:18:25;;;;;;;;;;;;;;;17.59;44.64;101471.00;5120882;28;19914;-58
2022/03/29 09:21:08;;;;;;;;;;;;;;;17.59;44.56;101460.25;5118348;28;19919;-58
2022/03/29 09:23:34;;;;;;;;;;;;;;;17.60;44.78;101459.25;5118276;28;19934;-58
2022/03/29 09:26:00;;;;;;;;;;;;;;;17.60;44.72;101457.41;5118502;28;19908;-58
2022/03/29 09:28:25;;;;;;;;;;;;;;;17.61;44.47;101458.25;5121325;28;20272;-58
2022/03/29 09:30:51;;;;;;;;;;;;;;;17.61;44.63;101451.03;5118030;28;19934;-58
2022/03/29 09:33:17;;;;;;;;;;;;;;;17.62;44.52;101449.19;5115396;28;19979;-59
2022/03/29 09:35:55;;;;;;;;;;;;;;;17.63;44.53;101456.28;5118395;28;19926;-58
2022/03/29 09:38:47;;;;;;;;;;;;;;;17.65;44.48;101448.91;5116125;28;19912;-59
2022/03/29 09:41:21;;;;;;;;;;;;;;;17.66;44.48;101447.91;5119946;28;19912;-56
2022/03/29 09:44:02;;;;;;;;;;;;;;;17.68;44.79;101440.53;5117820;28;19937;-57
2022/03/29 09:46:27;;;;;;;;;;;;;;;17.69;44.45;101437.69;5119451;28;19934;-53
2022/03/29 09:48:58;;;;;;;;;;;;;;;17.71;44.59;101438.41;5124366;28;19911;-58
2022/03/29 09:51:26;;;;;;;;;;;;;;;17.72;44.57;101425.81;5114195;28;19927;-58
2022/03/29 09:53:53;;;;;;;;;;;;;;;17.76;44.44;101429.09;5120179;28;19919;-58
2022/03/29 09:56:24;;;;;;;;;;;;;;;17.78;44.34;101429.78;5114626;28;19915;-57
2022/03/29 09:59:00;;;;;;;;;;;;;;;17.80;44.46;101427.75;5120451;28;19924;-58
2022/03/29 10:01:25;;;;;;;;;;;;;;;17.82;44.19;101420.41;5116142;28;19912;-57
2022/03/29 10:03:52;;;;;;;;;;;;;;;17.84;44.37;101421.09;5120901;28;19907;-58
2022/03/29 10:06:17;;;;;;;;;;;;;;;17.85;44.22;101412.91;5115556;28;19912;-59
2022/03/29 10:11:27;;;;;;;;;;;;;;;17.88;44.50;101404.53;5115427;28;20006;-59
2022/03/29 10:13:52;;;;;;;;;;;;;;;17.91;44.64;101403.38;5115137;28;19931;-59
2022/03/29 10:16:17;;;;;;;;;;;;;;;17.93;44.34;101402.22;5115335;28;19916;-59
2022/03/29 10:18:43;;;;;;;;;;;;;;;17.88;44.42;101383.00;5115161;28;19904;-58
2022/03/29 10:21:12;;;;;;;;;;;;;;;17.97;44.51;101394.72;5117189;28;19975;-58
2022/03/29 10:23:37;;;;;;;;;;;;;;;17.98;44.43;101389.16;5112032;28;19915;-58
2022/03/29 10:26:03;;;;;;;;;;;;;;;18.01;44.50;101392.53;5122594;28;19998;-57
2022/03/29 10:28:28;;;;;;;;;;;;;;;18.02;44.38;101388.88;5122286;28;19929;-58
2022/03/29 10:30:54;;;;;;;;;;;;;;;18.03;44.35;101393.25;5117605;28;19912;-59
2022/03/29 10:33:20;;;;;;;;;;;;;;;18.05;44.05;101385.88;5122435;28;19920;-59
2022/03/29 10:36:05;;;;;;;;;;;;;;;18.06;44.28;101382.19;5119785;28;19908;-59
2022/03/29 10:38:48;;;;;;;;;;;;;;;18.08;43.91;101383.72;5122658;28;19912;-58
2022/03/29 10:41:25;;;;;;;;;;;;;;;18.11;43.78;101377.19;5120974;28;19907;-59
2022/03/29 10:43:51;;;;;;;;;;;;;;;18.14;43.49;101371.53;5119832;28;19999;-59
2022/03/29 10:46:24;;;;;;;;;;;;;;;18.15;43.32;101368.66;5111376;28;19987;-56
2022/03/29 10:49:09;;;;;;;;;;;;;;;18.15;43.62;101359.75;5102804;28;19954;-57
2022/03/29 10:51:34;;;;;;;;;;;;;;;18.15;43.75;101371.34;5104444;28;19914;-57
2022/03/29 10:54:19;;;;;;;;;;;;;;;18.15;43.62;101367.81;5104226;28;19955;-57
2022/03/29 10:56:57;;;;;;;;;;;;;;;18.15;44.08;101360.59;5105098;28;19907;-57
2022/03/29 10:59:22;;;;;;;;;;;;;;;18.16;43.96;101364.13;5105262;28;19958;-58
2022/03/29 11:02:05;;;;;;;;;;;;;;;18.15;44.17;101368.66;5104367;28;19908;-57
2022/03/29 11:04:30;;;;;;;;;;;;;;;18.15;44.00;101360.59;5104423;28;19908;-57
2022/03/29 11:07:05;;;;;;;;;;;;;;;18.17;44.33;101358.59;5105010;28;19914;-57
2022/03/29 11:09:30;;;;;;;;;;;;;;;18.18;44.27;101356.72;5103518;28;20449;-56
2022/03/29 11:11:55;;;;;;;;;;;;;;;18.20;44.31;101354.75;5118908;28;19911;-57
2022/03/29 11:14:27;;;;;;;;;;;;;;;18.20;44.38;101354.75;5123604;28;19968;-56
2022/03/29 11:16:52;;;;;;;;;;;;;;;18.20;44.31;101349.38;5118587;28;19912;-57
2022/03/29 11:19:36;;;;;;;;;;;;;;;18.21;44.13;101351.06;5121437;28;19919;-57
2022/03/29 11:22:21;;;;;;;;;;;;;;;18.22;44.27;101342.84;5121434;28;19908;-57
2022/03/29 11:24:46;;;;;;;;;;;;;;;18.23;44.44;101346.38;5116388;28;19922;-57
2022/03/29 11:27:11;;;;;;;;;;;;;;;18.23;44.29;101341.00;5124780;28;19907;-57
2022/03/29 11:29:38;;;;;;;;;;;;;;;18.24;44.28;101345.38;5123218;28;19958;-57
2022/03/29 11:32:03;;;;;;;;;;;;;;;18.24;44.35;101340.84;5124536;28;19912;-58
2022/03/29 11:34:35;;;;;;;;;;;;;;;18.24;44.39;101335.44;5124511;28;19923;-57
2022/03/29 11:37:00;;;;;;;;;;;;;;;18.25;44.43;101333.59;5124965;28;19908;-56
2022/03/29 11:39:26;;;;;;;;;;;;;;;18.26;44.42;101335.28;5125063;28;19911;-57
2022/03/29 11:41:52;;;;;;;;;;;;;;;18.27;44.47;101328.09;5124452;28;19999;-57
2022/03/29 11:44:17;;;;;;;;;;;;;;;18.27;44.37;101322.69;5124717;28;19933;-55
2022/03/29 11:46:50;;;;;;;;;;;;;;;18.26;44.55;101312.91;5107929;28;19938;-57
2022/03/29 11:49:16;;;;;;;;;;;;;;;18.26;44.62;101313.75;5103884;28;19986;-58
2022/03/29 11:51:41;;;;;;;;;;;;;;;18.27;44.38;101320.00;5104178;28;19908;-54
2022/03/29 11:54:06;;;;;;;;;;;;;;;18.26;44.43;101308.38;5117471;28;19980;-58
2022/03/29 11:56:34;;;;;;;;;;;;;;;18.27;44.67;101302.00;5121273;28;20007;-57
2022/03/29 11:59:00;;;;;;;;;;;;;;;18.27;44.46;101298.47;5124043;28;19919;-58
2022/03/29 12:01:27;;;;;;;;;;;;;;;18.28;44.55;101294.78;5124123;28;19908;-58
2022/03/29 12:03:54;;;;;;;;;;;;;;;18.28;44.80;101289.38;5123412;28;19915;-57
2022/03/29 12:06:32;;;;;;;;;;;;;;;18.27;44.56;101285.84;5124781;28;19942;-57
2022/03/29 12:08:57;;;;;;;;;;;;;;;18.27;44.46;101283.16;5124388;28;19911;-57
2022/03/29 12:11:35;;;;;;;;;;;;;;;18.28;44.61;101273.25;5124637;28;19918;-57
2022/03/29 12:14:10;;;;;;;;;;;;;;;18.29;44.71;101266.84;5124029;28;19916;-57
2022/03/29 12:16:37;;;;;;;;;;;;;;;18.29;44.52;101267.69;5124481;28;19912;-57
2022/03/29 12:19:05;;;;;;;;;;;;;;;18.30;44.74;101269.38;5122260;28;19911;-57
2022/03/29 12:21:30;;;;;;;;;;;;;;;18.30;44.63;101266.69;5123188;28;19916;-57
2022/03/29 12:24:01;;;;;;;;;;;;;;;18.31;44.77;101252.25;5124286;28;19922;-56
2022/03/29 12:26:26;;;;;;;;;;;;;;;18.33;44.65;101252.09;5124470;28;19921;-56
2022/03/29 12:28:51;;;;;;;;;;;;;;;18.34;44.69;101240.31;5124473;28;19908;-56
2022/03/29 12:31:17;;;;;;;;;;;;;;;18.36;44.57;101235.63;5123253;28;20368;-57
2022/03/29 12:33:43;;;;;;;;;;;;;;;18.37;44.63;101235.44;5122169;28;19919;-57
2022/03/29 12:36:12;;;;;;;;;;;;;;;18.40;44.43;101227.06;5123260;28;20038;-57
2022/03/29 12:38:45;;;;;;;;;;;;;;;18.43;44.42;101221.34;5124154;28;19930;-57
2022/03/29 12:41:12;;;;;;;;;;;;;;;18.46;44.38;101220.19;5123958;28;19939;-58
2022/03/29 12:43:37;;;;;;;;;;;;;;;18.48;44.60;101210.97;5123690;28;19919;-58